Jiu Hua San — 9VBK2 — position and weather

sailwx.info

Track history (hours):
 
Tides and Currents Weather Stations Pressure Air Temp Water Temp Dewpoint Dewpoint Depression Visibility Wind Speed Wind Dir Waves Ship Positions

Jiu Hua San

Last reported at 2016-Dec-02 10:16 UTC. Time now 2016-Dec-05 20:41 UTC.
Position N 35°06' E 119°50'.

Length 333 m; draft 16.3 m.

Type: Ship. MMSI: 565914000.

Date/timePositionNaut miles runAvg speedWind from/ knotsBaromVisibWave heightAir tempDewpointWater temp
2016-Dec-02 10:16N 35°06' E 119°50'15 8.5
2016-Dec-02 08:32N 35°06' E 119°32'6 0.2
2016-Dec-01 04:32N 35°06' E 119°25'19 7.9
2016-Dec-01 02:05N 35°07' E 119°48'810.4
2016-Dec-01 01:19N 35°07' E 119°58'5 6.0
2016-Dec-01 00:33N 35°11' E 120°02'0 0.0
2016-Nov-30 19:06N 35°11' E 120°01'0 0.4
2016-Nov-30 18:18N 35°11' E 120°02'0 0.0
2016-Nov-28 18:05N 35°11' E 120°01'0 0.3
2016-Nov-28 17:14N 35°11' E 120°02'202 6.7
2016-Nov-27 11:15N 38°24' E 121°18'913.0
2016-Nov-27 10:33N 38°27' E 121°08'1313.6
2016-Nov-27 09:33N 38°33' E 120°52'1413.6
2016-Nov-27 08:32N 38°36' E 120°34'8912.7
2016-Nov-27 01:34N 38°48' E 118°42'9 9.2
2016-Nov-27 00:34N 38°52' E 118°32'  
2016-Nov-23 16:31N 38°52' E 118°34'0 0.1
2016-Nov-23 11:34N 38°52' E 118°34'4 3.9
2016-Nov-23 10:33N 38°50' E 118°38'9211.5
2016-Nov-23 02:33N 38°38' E 120°35'2613.2
2016-Nov-23 00:33N 38°31' E 121°07'1413.7
2016-Nov-22 23:33N 38°25' E 121°23'  
Track history (hours):
 
Tides and Currents Weather Stations Pressure Air Temp Water Temp Dewpoint Dewpoint Depression Visibility Wind Speed Wind Dir Waves Ship Positions

Jiu Hua San

Last reported at 2016-Dec-02 10:16 UTC. Time now 2016-Dec-05 20:41 UTC.
Position N 35°06' E 119°50'.

Length 333 m; draft 16.3 m.

Type: Ship. MMSI: 565914000.

Date/timePositionNaut miles runAvg speedWind from/ knotsBaromVisibWave heightAir tempDewpointWater temp
2016-Dec-02 10:16N 35°06' E 119°50'15 8.5
2016-Dec-02 08:32N 35°06' E 119°32'6 0.2
2016-Dec-01 04:32N 35°06' E 119°25'19 7.9
2016-Dec-01 02:05N 35°07' E 119°48'810.4
2016-Dec-01 01:19N 35°07' E 119°58'5 6.0
2016-Dec-01 00:33N 35°11' E 120°02'0 0.0
2016-Nov-30 19:06N 35°11' E 120°01'0 0.4
2016-Nov-30 18:18N 35°11' E 120°02'0 0.0
2016-Nov-28 18:05N 35°11' E 120°01'0 0.3
2016-Nov-28 17:14N 35°11' E 120°02'202 6.7
2016-Nov-27 11:15N 38°24' E 121°18'913.0
2016-Nov-27 10:33N 38°27' E 121°08'1313.6
2016-Nov-27 09:33N 38°33' E 120°52'1413.6
2016-Nov-27 08:32N 38°36' E 120°34'8912.7
2016-Nov-27 01:34N 38°48' E 118°42'9 9.2
2016-Nov-27 00:34N 38°52' E 118°32'  
2016-Nov-23 16:31N 38°52' E 118°34'0 0.1
2016-Nov-23 11:34N 38°52' E 118°34'4 3.9
2016-Nov-23 10:33N 38°50' E 118°38'9211.5
2016-Nov-23 02:33N 38°38' E 120°35'2613.2
2016-Nov-23 00:33N 38°31' E 121°07'1413.7
2016-Nov-22 23:33N 38°25' E 121°23'  

Dump ship's entire track history